^^
Saratoga-Weather Station Historical Data
Daily Summary for February 21, 2020 Units:  English    Metric   Both
Daily Weekly Monthly Yearly Custom
  High: Low: Average:
Temperature: 71.8 °F 50.4 °F 59.2 °F
Dew Point: 56.7 °F 49.1 °F 52.5 °F
Humidity: 97% 55% 80%
Wind Speed: 8.9mph 0mph 1.2mph
Wind Gust: 16mph - -
Wind- - SSW
Pressure: 29.8 in 29.7 in -
Precipitation: 0.09 in    
Historical Graphs
 
 
Tabular Data for February 21, 2020
Time Temperature Dew Point Pressure Wind Wind Speed Wind Gust Humidity Rainfall Rate (Hourly) solar
00:00 52.9 °F 51.3 °F 29.8 in Calm     94% 0 in 0 W/m2
00:05 52.9 °F 51.3 °F 29.8 in Calm     94% 0 in 0 W/m2
00:10 52.9 °F 51.3 °F 29.8 in Calm     94% 0 in 0 W/m2
00:15 52.7 °F 51.1 °F 29.8 in Calm     94% 0 in 0 W/m2
00:20 52.7 °F 51.1 °F 29.8 in Calm     94% 0 in 0 W/m2
00:25 52.5 °F 50.9 °F 29.8 in Calm     94% 0 in 0 W/m2
00:30 52.5 °F 50.9 °F 29.8 in Calm     94% 0 in 0 W/m2
00:35 52.5 °F 50.9 °F 29.8 in Calm     94% 0 in 0 W/m2
00:40 52.3 °F 50.7 °F 29.8 in Calm     94% 0 in 0 W/m2
00:45 52.3 °F 50.7 °F 29.8 in Calm     94% 0 in 0 W/m2
00:50 52.3 °F 50.7 °F 29.8 in Calm     94% 0 in 0 W/m2
00:55 52.3 °F 50.7 °F 29.8 in Calm     94% 0 in 0 W/m2
01:00 52.3 °F 50.7 °F 29.8 in Calm     94% 0 in 0 W/m2
01:05 52.2 °F 50.5 °F 29.8 in Calm     94% 0 in 0 W/m2
01:10 52.2 °F 50.5 °F 29.8 in Calm     94% 0 in 0 W/m2
01:15 52.2 °F 50.5 °F 29.8 in Calm     94% 0 in 0 W/m2
01:20 52.2 °F 50.5 °F 29.8 in Calm     94% 0 in 0 W/m2
01:25 52.2 °F 50.5 °F 29.8 in Calm     94% 0 in 0 W/m2
01:30 52.2 °F 50.5 °F 29.8 in Calm     94% 0 in 0 W/m2
01:36 52 °F 50.4 °F 29.8 in Calm     94% 0 in 0 W/m2
01:41 52 °F 50.4 °F 29.8 in Calm     94% 0 in 0 W/m2
01:46 52 °F 50.4 °F 29.8 in Calm     94% 0 in 0 W/m2
01:51 52 °F 50.4 °F 29.8 in Calm     94% 0 in 0 W/m2
01:56 51.8 °F 50.2 °F 29.8 in Calm     94% 0 in 0 W/m2
02:01 51.6 °F 50 °F 29.8 in Calm     94% 0 in 0 W/m2
02:06 51.4 °F 49.8 °F 29.8 in Calm     94% 0 in 0 W/m2
02:11 51.4 °F 49.8 °F 29.8 in Calm     94% 0 in 0 W/m2
02:16 51.4 °F 49.8 °F 29.8 in Calm     94% 0 in 0 W/m2
02:21 51.3 °F 49.6 °F 29.8 in Calm     94% 0 in 0 W/m2
02:26 51.3 °F 49.6 °F 29.8 in Calm     94% 0 in 0 W/m2
02:31 51.1 °F 49.6 °F 29.8 in Calm     95% 0 in 0 W/m2
02:36 51.1 °F 49.5 °F 29.8 in Calm     94% 0 in 0 W/m2
02:41 51.1 °F 49.6 °F 29.8 in Calm     95% 0 in 0 W/m2
02:46 51.1 °F 49.6 °F 29.8 in Calm     95% 0 in 0 W/m2
02:51 51.1 °F 49.6 °F 29.8 in Calm     95% 0 in 0 W/m2
02:56 50.9 °F 49.5 °F 29.8 in Calm     95% 0 in 0 W/m2
03:01 50.9 °F 49.5 °F 29.8 in Calm     95% 0 in 0 W/m2
03:06 50.9 °F 49.5 °F 29.8 in Calm     95% 0 in 0 W/m2
03:11 50.7 °F 49.3 °F 29.8 in Calm     95% 0 in 0 W/m2
03:16 50.7 °F 49.3 °F 29.8 in Calm     95% 0 in 0 W/m2
03:21 50.7 °F 49.3 °F 29.8 in Calm     95% 0 in 0 W/m2
03:26 50.5 °F 49.1 °F 29.8 in Calm     95% 0 in 0 W/m2
03:31 50.7 °F 49.3 °F 29.8 in Calm     95% 0 in 0 W/m2
03:37 50.7 °F 49.3 °F 29.8 in Calm     95% 0 in 0 W/m2
03:42 50.7 °F 49.3 °F 29.8 in Calm     95% 0 in 0 W/m2
03:47 50.7 °F 49.3 °F 29.8 in Calm     95% 0 in 0 W/m2
03:52 50.7 °F 49.3 °F 29.8 in Calm     95% 0 in 0 W/m2
03:57 50.9 °F 49.5 °F 29.8 in Calm     95% 0 in 0 W/m2
04:02 50.9 °F 49.5 °F 29.8 in Calm   1 mph 95% 0.01 in 0 W/m2
04:07 51.1 °F 49.6 °F 29.8 in Calm   2 mph 95% 0.01 in 0 W/m2
04:12 51.1 °F 49.6 °F 29.7 in SE 0.9 mph 1 mph 95% 0.01 in 0 W/m2
04:17 51.3 °F 49.8 °F 29.7 in Calm   2 mph 95% 0.01 in 0 W/m2
04:22 51.3 °F 49.8 °F 29.7 in Calm     95% 0.01 in 0 W/m2
04:27 51.3 °F 49.8 °F 29.7 in Calm   2 mph 95% 0.01 in 0 W/m2
04:32 51.3 °F 49.8 °F 29.7 in ENE 2 mph 3 mph 95% 0.01 in 0 W/m2
04:37 51.8 °F 50.4 °F 29.7 in NE 2 mph 4 mph 95% 0.02 in 0 W/m2
04:42 52.7 °F 50.7 °F 29.7 in North 2 mph 5 mph 93% 0.02 in 0 W/m2
04:47 53.4 °F 50.5 °F 29.7 in ESE 2 mph 4 mph 90% 0.02 in 0 W/m2
04:52 54 °F 50.5 °F 29.7 in NNE 0.9 mph 3 mph 88% 0.02 in 0 W/m2
04:57 54.1 °F 50.4 °F 29.7 in ENE 2 mph 3 mph 87% 0.02 in 0 W/m2
05:02 54.1 °F 50.4 °F 29.7 in NNE 4 mph 4 mph 87% 0.02 in 0 W/m2
05:07 54 °F 50.2 °F 29.7 in ENE 0.9 mph 2 mph 87% 0.04 in 0 W/m2
05:12 53.8 °F 50.4 °F 29.7 in Calm   2 mph 88% 0.05 in 0 W/m2
05:17 53.4 °F 50.5 °F 29.7 in Calm   2 mph 90% 0.05 in 0 W/m2
05:22 53.2 °F 50.4 °F 29.7 in ENE 0.9 mph 3 mph 90% 0.05 in 0 W/m2
05:32 52.5 °F 50.2 °F 29.7 in Calm   3 mph 92% 0.05 in 0 W/m2
05:37 52.3 °F 50 °F 29.7 in Calm     92% 0.04 in 0 W/m2
05:42 52.2 °F 49.8 °F 29.7 in Calm     92% 0.05 in 0 W/m2
05:47 52.2 °F 50.2 °F 29.7 in Calm     93% 0.05 in 0 W/m2
05:52 52 °F 50 °F 29.7 in Calm     93% 0.04 in 0 W/m2
05:57 51.8 °F 49.8 °F 29.7 in Calm     93% 0.04 in 0 W/m2
06:02 51.6 °F 50 °F 29.7 in Calm     94% 0.03 in 0 W/m2
06:07 51.4 °F 49.8 °F 29.7 in Calm     94% 0.02 in 0 W/m2
06:12 51.4 °F 49.8 °F 29.7 in Calm     94% 0.02 in 0 W/m2
06:17 51.4 °F 49.8 °F 29.7 in Calm     94% 0.02 in 0 W/m2
06:22 51.3 °F 49.6 °F 29.7 in Calm     94% 0.02 in 0 W/m2
06:27 51.3 °F 49.8 °F 29.7 in Calm     95% 0.02 in 0 W/m2
06:32 51.3 °F 49.8 °F 29.7 in Calm     95% 0.02 in 0 W/m2
06:37 51.3 °F 49.8 °F 29.7 in Calm     95% 0.02 in 0 W/m2
06:42 51.3 °F 49.8 °F 29.7 in Calm     95% 0.02 in 0 W/m2
06:47 51.3 °F 49.8 °F 29.7 in Calm     95% 0.02 in 0 W/m2
06:52 51.3 °F 49.8 °F 29.7 in ENE 0.9 mph 2 mph 95% 0.02 in 0 W/m2
06:57 51.3 °F 49.8 °F 29.7 in Calm     95% 0.02 in 0 W/m2
07:02 51.1 °F 49.6 °F 29.7 in Calm   2 mph 95% 0.02 in 0 W/m2
07:07 51.1 °F 49.6 °F 29.7 in Calm     95% 0.02 in 0 W/m2
07:12 51.1 °F 49.6 °F 29.7 in Calm     95% 0.01 in 0 W/m2
07:17 50.9 °F 49.5 °F 29.7 in Calm     95% 0.01 in 0 W/m2
07:22 50.9 °F 49.5 °F 29.7 in Calm     95% 0.01 in 0 W/m2
07:27 50.7 °F 49.6 °F 29.7 in Calm     96% 0.01 in 0 W/m2
07:32 50.7 °F 49.3 °F 29.7 in Calm     95% 0 in 0 W/m2
07:37 50.5 °F 49.1 °F 29.7 in Calm     95% 0 in 0 W/m2
07:42 50.5 °F 49.1 °F 29.7 in Calm   1 mph 95% 0 in 0 W/m2
07:47 50.4 °F 49.3 °F 29.7 in Calm     96% 0 in 0 W/m2
07:52 50.4 °F 49.3 °F 29.7 in Calm   1 mph 96% 0 in 0 W/m2
07:57 50.4 °F 49.3 °F 29.7 in Calm     96% 0 in 0 W/m2
08:02 50.4 °F 49.3 °F 29.7 in Calm     96% 0 in 0 W/m2
08:07 50.4 °F 49.3 °F 29.7 in Calm     96% 0 in 0 W/m2
08:12 50.4 °F 49.3 °F 29.7 in Calm     96% 0 in 0 W/m2
08:17 50.4 °F 49.3 °F 29.7 in Calm     96% 0.01 in 0 W/m2
08:22 50.4 °F 49.3 °F 29.7 in Calm     96% 0.01 in 5 W/m2
08:27 50.4 °F 49.3 °F 29.7 in Calm     96% 0.01 in 9 W/m2
08:32 50.5 °F 49.5 °F 29.7 in Calm     96% 0.01 in 14 W/m2
08:37 50.5 °F 49.5 °F 29.7 in Calm     96% 0.01 in 19 W/m2
08:42 50.5 °F 49.5 °F 29.7 in Calm     96% 0.01 in 21 W/m2
08:47 50.5 °F 49.5 °F 29.7 in Calm     96% 0.01 in 25 W/m2
08:52 50.5 °F 49.5 °F 29.7 in Calm     96% 0.01 in 25 W/m2
08:57 50.5 °F 49.5 °F 29.7 in Calm     96% 0.01 in 19 W/m2
09:02 50.5 °F 49.5 °F 29.7 in Calm     96% 0.01 in 33 W/m2
09:07 50.5 °F 49.5 °F 29.7 in Calm     96% 0.01 in 26 W/m2
09:12 50.5 °F 49.5 °F 29.7 in Calm     96% 0.01 in 25 W/m2
09:17 50.7 °F 49.6 °F 29.7 in Calm     96% 0 in 26 W/m2
09:22 50.7 °F 49.6 °F 29.7 in Calm     96% 0 in 19 W/m2
09:27 50.9 °F 49.8 °F 29.7 in NW 2 mph 2 mph 96% 0 in 32 W/m2
09:32 50.9 °F 49.8 °F 29.7 in West 0.9 mph 1 mph 96% 0 in 44 W/m2
09:37 50.9 °F 49.8 °F 29.7 in Calm   1 mph 96% 0 in 32 W/m2
09:42 51.1 °F 50 °F 29.7 in Calm   1 mph 96% 0 in 30 W/m2
09:47 51.1 °F 50 °F 29.7 in Calm     96% 0 in 28 W/m2
09:52 51.1 °F 50 °F 29.7 in Calm   2 mph 96% 0 in 26 W/m2
09:57 51.1 °F 50 °F 29.7 in Calm     96% 0 in 39 W/m2
10:02 51.1 °F 50 °F 29.7 in Calm   2 mph 96% 0 in 58 W/m2
10:07 51.3 °F 50.2 °F 29.7 in Calm     96% 0 in 74 W/m2
10:12 51.3 °F 50.4 °F 29.7 in Calm   1 mph 97% 0 in 76 W/m2
10:17 51.4 °F 50.5 °F 29.7 in Calm     97% 0 in 74 W/m2
10:22 51.4 °F 50.5 °F 29.7 in Calm   1 mph 97% 0 in 84 W/m2
10:27 51.8 °F 50.9 °F 29.7 in Calm     97% 0 in 127 W/m2
10:32 52 °F 51.1 °F 29.7 in Calm   1 mph 97% 0 in 114 W/m2
10:37 52.2 °F 51.3 °F 29.7 in Calm     97% 0 in 113 W/m2
10:42 52.3 °F 51.4 °F 29.7 in Calm     97% 0 in 120 W/m2
10:47 52.7 °F 51.8 °F 29.7 in Calm     97% 0 in 95 W/m2
10:52 53.1 °F 52.2 °F 29.7 in Calm     97% 0 in 84 W/m2
10:57 53.2 °F 52.3 °F 29.7 in Calm     97% 0 in 95 W/m2
11:02 53.4 °F 52.5 °F 29.7 in Calm     97% 0 in 81 W/m2
11:07 53.6 °F 52.7 °F 29.7 in Calm     97% 0 in 114 W/m2
11:12 53.8 °F 52.9 °F 29.7 in West 0.9 mph 2 mph 97% 0 in 151 W/m2
11:17 54 °F 52.9 °F 29.7 in ENE 2 mph 2 mph 96% 0 in 135 W/m2
11:22 54.1 °F 53.2 °F 29.7 in NE 0.9 mph 2 mph 97% 0 in 109 W/m2
11:28 54.7 °F 53.6 °F 29.7 in NNW 0.9 mph 2 mph 96% 0 in 97 W/m2
11:33 55 °F 54 °F 29.7 in NW 0.9 mph 9 mph 96% 0 in 79 W/m2
11:38 56.3 °F 54.9 °F 29.7 in NE 2.9 mph 5 mph 95% 0 in 72 W/m2
11:43 57.7 °F 55.2 °F 29.7 in ESE 8.9 mph 11 mph 91% 0 in 53 W/m2
11:48 59.5 °F 53.8 °F 29.7 in Calm   5 mph 81% 0 in 70 W/m2
11:53 61.2 °F 53.2 °F 29.7 in NW 4 mph 4 mph 75% 0 in 132 W/m2
11:58 62.1 °F 53.6 °F 29.7 in NNE 0.9 mph 4 mph 74% 0 in 139 W/m2
12:03 62.6 °F 52.7 °F 29.7 in NNW 4 mph 7 mph 70% 0 in 141 W/m2
12:08 63.1 °F 52.3 °F 29.7 in NNW 0.9 mph 6 mph 68% 0 in 197 W/m2
12:13 63.9 °F 52.7 °F 29.7 in NNE 2.9 mph 4 mph 67% 0 in 197 W/m2
12:18 64.2 °F 52.2 °F 29.7 in ENE 4 mph 5 mph 65% 0 in 172 W/m2
12:23 64.8 °F 52.7 °F 29.7 in NNE 2 mph 8 mph 65% 0 in 192 W/m2
12:28 64.9 °F 51.6 °F 29.7 in East 2 mph 8 mph 62% 0 in 204 W/m2
12:33 65.3 °F 52 °F 29.7 in NW 0.9 mph 6 mph 62% 0 in 223 W/m2
12:38 65.7 °F 52.7 °F 29.7 in NW 2 mph 5 mph 63% 0 in 229 W/m2
12:43 65.8 °F 52.5 °F 29.7 in NNW 4.9 mph 9 mph 62% 0 in 290 W/m2
12:48 66 °F 52.7 °F 29.7 in Calm   6 mph 62% 0 in 330 W/m2
12:53 66.6 °F 52.7 °F 29.7 in NNW 4 mph 5 mph 61% 0 in 244 W/m2
12:58 66.7 °F 52.9 °F 29.7 in WNW 0.9 mph 9 mph 61% 0 in 183 W/m2
13:03 66.7 °F 52.3 °F 29.7 in SSW 2.9 mph 15 mph 60% 0 in 151 W/m2
13:08 66.7 °F 52.3 °F 29.7 in East 0.9 mph 5 mph 60% 0 in 246 W/m2
13:13 66.9 °F 53.1 °F 29.7 in WSW 2 mph 8 mph 61% 0 in 267 W/m2
13:18 67.3 °F 52.5 °F 29.7 in WNW 0.9 mph 10 mph 59% 0 in 246 W/m2
13:23 67.5 °F 52.7 °F 29.7 in NW 2.9 mph 9 mph 59% 0 in 142 W/m2
13:28 67.5 °F 52.2 °F 29.7 in SSW 2.9 mph 12 mph 58% 0 in 148 W/m2
13:33 67.3 °F 52.5 °F 29.7 in ENE 2.9 mph 7 mph 59% 0 in 151 W/m2
13:38 67.5 °F 52.7 °F 29.7 in Calm   12 mph 59% 0 in 120 W/m2
13:43 67.6 °F 52.9 °F 29.7 in NW 4 mph 10 mph 59% 0 in 102 W/m2
13:48 68.2 °F 53.2 °F 29.7 in ENE 0.9 mph 4 mph 59% 0 in 107 W/m2
13:53 68.5 °F 53.6 °F 29.7 in North 2.9 mph 10 mph 59% 0 in 102 W/m2
13:58 69.1 °F 53.6 °F 29.7 in NNE 2.9 mph 10 mph 58% 0 in 128 W/m2
14:03 69.4 °F 53.6 °F 29.7 in NNE 4.9 mph 8 mph 57% 0 in 130 W/m2
14:08 69.6 °F 53.8 °F 29.7 in NE 2.9 mph 9 mph 57% 0 in 142 W/m2
14:13 70 °F 54 °F 29.7 in NW 4 mph 7 mph 57% 0 in 118 W/m2
14:18 70.2 °F 54.1 °F 29.7 in NW 2.9 mph 8 mph 57% 0 in 134 W/m2
14:23 70.3 °F 54 °F 29.7 in NNW 4.9 mph 7 mph 56% 0 in 113 W/m2
14:28 70.3 °F 54.3 °F 29.7 in North 4.9 mph 6 mph 57% 0 in 91 W/m2
14:33 70.3 °F 54 °F 29.7 in NW 4 mph 9 mph 56% 0 in 83 W/m2
14:38 70.3 °F 54 °F 29.7 in NNW 2.9 mph 6 mph 56% 0 in 74 W/m2
14:44 70.3 °F 54 °F 29.7 in NNW 4.9 mph 6 mph 56% 0 in 79 W/m2
14:49 70.3 °F 54 °F 29.7 in NNE 4 mph 9 mph 56% 0 in 63 W/m2
14:54 70.3 °F 54 °F 29.7 in NNE 4 mph 9 mph 56% 0 in 58 W/m2
14:59 70.5 °F 54.1 °F 29.7 in NW 8.1 mph 10 mph 56% 0 in 56 W/m2
15:04 70.9 °F 54.3 °F 29.7 in West 2.9 mph 10 mph 56% 0 in 54 W/m2
15:09 70.9 °F 54 °F 29.7 in NE 0.9 mph 12 mph 55% 0 in 53 W/m2
15:14 70.9 °F 54.3 °F 29.7 in North 2.9 mph 16 mph 56% 0 in 53 W/m2
15:19 71.1 °F 54.5 °F 29.7 in NW 2.9 mph 9 mph 56% 0 in 51 W/m2
15:24 71.2 °F 54.3 °F 29.7 in ENE 2 mph 7 mph 55% 0 in 58 W/m2
15:29 71.2 °F 54.3 °F 29.7 in East 2 mph 11 mph 55% 0 in 53 W/m2
15:34 71.4 °F 54.5 °F 29.7 in ENE 2.9 mph 7 mph 55% 0 in 60 W/m2
15:39 71.4 °F 54.5 °F 29.7 in North 2 mph 4 mph 55% 0 in 63 W/m2
15:44 71.8 °F 54.7 °F 29.7 in NW 4.9 mph 5 mph 55% 0 in 91 W/m2
15:49 71.8 °F 54.7 °F 29.7 in WNW 2.9 mph 5 mph 55% 0 in 70 W/m2
15:54 71.8 °F 54.7 °F 29.7 in NNW 0.9 mph 5 mph 55% 0 in 62 W/m2
15:59 71.8 °F 54.7 °F 29.7 in NE 2.9 mph 10 mph 55% 0 in 76 W/m2
16:04 71.4 °F 54.5 °F 29.7 in NE 0.9 mph 8 mph 55% 0 in 84 W/m2
16:09 71.2 °F 54.7 °F 29.7 in NE 2.9 mph 4 mph 56% 0 in 97 W/m2
16:14 71.1 °F 54.5 °F 29.7 in NNW 2 mph 6 mph 56% 0 in 53 W/m2
16:19 70.7 °F 54.7 °F 29.7 in SSW 0.9 mph 3 mph 57% 0 in 84 W/m2
16:24 70.3 °F 54.3 °F 29.7 in NNW 2 mph 4 mph 57% 0 in 70 W/m2
16:29 70.2 °F 54.1 °F 29.7 in NE 4 mph 8 mph 57% 0 in 102 W/m2
16:34 70.2 °F 54.1 °F 29.7 in WNW 6 mph 10 mph 57% 0 in 67 W/m2
16:39 70.2 °F 54.1 °F 29.7 in NNE 2 mph 5 mph 57% 0 in 53 W/m2
16:44 70 °F 54.5 °F 29.7 in NW 2.9 mph 5 mph 58% 0 in 53 W/m2
16:49 69.8 °F 54.3 °F 29.7 in NW 2.9 mph 8 mph 58% 0 in 51 W/m2
16:54 69.8 °F 54.3 °F 29.7 in NNW 2.9 mph 10 mph 58% 0 in 56 W/m2
16:59 69.6 °F 54.1 °F 29.7 in NNW 4 mph 5 mph 58% 0 in 40 W/m2
17:04 69.8 °F 54.3 °F 29.7 in ENE 2.9 mph 10 mph 58% 0 in 72 W/m2
17:10 70 °F 54.5 °F 29.7 in North 0.9 mph 3 mph 58% 0 in 40 W/m2
17:15 69.8 °F 54.3 °F 29.7 in East 4 mph 10 mph 58% 0 in 63 W/m2
17:20 69.6 °F 54.7 °F 29.7 in ESE 4 mph 4 mph 59% 0 in 49 W/m2
17:25 70 °F 54.5 °F 29.7 in WNW 2 mph 3 mph 58% 0 in 40 W/m2
17:30 70 °F 55 °F 29.7 in NW 4 mph 4 mph 59% 0 in 35 W/m2
17:35 70 °F 54.5 °F 29.7 in West 0.9 mph 4 mph 58% 0 in 26 W/m2
17:40 69.6 °F 54.7 °F 29.7 in ENE 2.9 mph 5 mph 59% 0 in 28 W/m2
17:45 69.6 °F 54.7 °F 29.7 in NE 6 mph 6 mph 59% 0 in 26 W/m2
17:50 69.4 °F 54.5 °F 29.7 in SSW 2 mph 4 mph 59% 0 in 23 W/m2
17:55 69.4 °F 54.5 °F 29.7 in West 2 mph 8 mph 59% 0 in 23 W/m2
18:00 69.4 °F 54.9 °F 29.7 in Calm   4 mph 60% 0 in 18 W/m2
18:05 69.3 °F 54.9 °F 29.7 in NE 2 mph 4 mph 60% 0 in 19 W/m2
18:10 69.1 °F 54.7 °F 29.7 in SSE 4 mph 4 mph 60% 0 in 11 W/m2
18:15 68.7 °F 54.7 °F 29.7 in North 2 mph 3 mph 61% 0 in 11 W/m2
18:20 68.5 °F 55 °F 29.7 in Calm   2 mph 62% 0 in 7 W/m2
18:25 68.2 °F 55.6 °F 29.7 in ESE 0.9 mph 1 mph 64% 0 in 5 W/m2
18:30 67.5 °F 55.2 °F 29.7 in ENE 0.9 mph 2 mph 65% 0 in 0 W/m2
18:35 66.7 °F 55.8 °F 29.7 in South 0.9 mph 1 mph 68% 0 in 0 W/m2
18:40 66.2 °F 55.8 °F 29.7 in South 0.9 mph 1 mph 69% 0 in 0 W/m2
18:45 65.7 °F 55.9 °F 29.7 in South 0.9 mph 2 mph 71% 0 in 0 W/m2
18:50 65.1 °F 55.4 °F 29.7 in NW 0.9 mph 1 mph 71% 0 in 0 W/m2
18:55 64.8 °F 55.6 °F 29.7 in West 0.9 mph 2 mph 72% 0 in 0 W/m2
19:00 64.6 °F 55.8 °F 29.7 in Calm     73% 0 in 0 W/m2
19:05 64.2 °F 55.8 °F 29.7 in Calm   1 mph 74% 0 in 0 W/m2
19:10 63.9 °F 55.8 °F 29.7 in SSE 2 mph 4 mph 75% 0 in 0 W/m2
19:15 63.9 °F 55 °F 29.7 in Calm   4 mph 73% 0 in 0 W/m2
19:20 64.2 °F 54.7 °F 29.7 in NW 2.9 mph 6 mph 71% 0 in 0 W/m2
19:25 64.9 °F 54.5 °F 29.7 in NNW 2 mph 3 mph 69% 0 in 0 W/m2
19:30 65.8 °F 55 °F 29.8 in North 4.9 mph 5 mph 68% 0 in 0 W/m2
19:35 66.4 °F 55 °F 29.8 in SE 2.9 mph 3 mph 67% 0 in 0 W/m2
19:40 66.4 °F 55.6 °F 29.8 in SSW 0.9 mph 1 mph 68% 0 in 0 W/m2
19:45 65.8 °F 55 °F 29.8 in SSW 2 mph 2 mph 68% 0 in 0 W/m2
19:50 65.1 °F 55 °F 29.8 in SSW 2 mph 2 mph 70% 0 in 0 W/m2
19:55 64.6 °F 55.4 °F 29.8 in SSE 0.9 mph 1 mph 72% 0 in 0 W/m2
20:00 64 °F 55.2 °F 29.8 in SSE 0.9 mph 1 mph 73% 0 in 0 W/m2
20:05 63.3 °F 55.2 °F 29.8 in Calm   1 mph 75% 0 in 0 W/m2
20:10 62.8 °F 55 °F 29.8 in Calm   1 mph 76% 0 in 0 W/m2
20:15 62.2 °F 55.2 °F 29.8 in Calm   2 mph 78% 0 in 0 W/m2
20:20 61.9 °F 55.2 °F 29.8 in NNE 0.9 mph 2 mph 79% 0 in 0 W/m2
20:25 61.7 °F 55.4 °F 29.8 in Calm     80% 0 in 0 W/m2
20:30 61.3 °F 55.4 °F 29.8 in South 0.9 mph 2 mph 81% 0 in 0 W/m2
20:35 61.2 °F 55.2 °F 29.8 in Calm     81% 0 in 0 W/m2
20:40 61.2 °F 55.2 °F 29.8 in WNW 2 mph 5 mph 81% 0 in 0 W/m2
20:45 61.3 °F 55 °F 29.8 in NNE 0.9 mph 3 mph 80% 0 in 0 W/m2
20:50 62.1 °F 55 °F 29.8 in NW 2.9 mph 4 mph 78% 0 in 0 W/m2
20:55 62.8 °F 55 °F 29.8 in North 0.9 mph 3 mph 76% 0 in 0 W/m2
21:00 63.3 °F 54.5 °F 29.8 in NNW 4.9 mph 8 mph 73% 0 in 0 W/m2
21:05 64 °F 54.9 °F 29.8 in North 2.9 mph 6 mph 72% 0 in 0 W/m2
21:10 64.2 °F 55 °F 29.8 in Calm   8 mph 72% 0 in 0 W/m2
21:15 64.6 °F 55.4 °F 29.8 in WNW 0.9 mph 5 mph 72% 0 in 0 W/m2
21:20 64.6 °F 55.4 °F 29.8 in NNW 0.9 mph 4 mph 72% 0 in 0 W/m2
21:25 64.6 °F 55.4 °F 29.8 in North 2 mph 2 mph 72% 0 in 0 W/m2
21:30 64.6 °F 55.4 °F 29.8 in Calm   3 mph 72% 0 in 0 W/m2
21:35 64.6 °F 55.4 °F 29.8 in Calm   3 mph 72% 0 in 0 W/m2
21:40 64.6 °F 55.8 °F 29.8 in ENE 2.9 mph 4 mph 73% 0 in 0 W/m2
21:46 64.2 °F 55.8 °F 29.8 in SSW 0.9 mph 1 mph 74% 0 in 0 W/m2
21:51 64 °F 55.6 °F 29.8 in SW 0.9 mph 4 mph 74% 0 in 0 W/m2
21:56 64 °F 55.9 °F 29.8 in Calm   2 mph 75% 0 in 0 W/m2
22:01 63.9 °F 56.1 °F 29.8 in NW 0.9 mph 4 mph 76% 0 in 0 W/m2
22:06 63.7 °F 55.9 °F 29.8 in ESE 0.9 mph 6 mph 76% 0 in 0 W/m2
22:11 63.3 °F 55.6 °F 29.8 in Calm   1 mph 76% 0 in 0 W/m2
22:16 63.3 °F 55.6 °F 29.8 in Calm   6 mph 76% 0 in 0 W/m2
22:21 63.3 °F 55.6 °F 29.8 in Calm   4 mph 76% 0 in 0 W/m2
22:26 63.5 °F 55.4 °F 29.8 in Calm   4 mph 75% 0 in 0 W/m2
22:31 63.3 °F 55.2 °F 29.8 in Calm   2 mph 75% 0 in 0 W/m2
22:36 63.1 °F 55.4 °F 29.8 in NNW 0.9 mph 4 mph 76% 0 in 0 W/m2
22:41 63.1 °F 55.4 °F 29.8 in North 2.9 mph 3 mph 76% 0 in 0 W/m2
22:46 63.1 °F 55.4 °F 29.8 in West 0.9 mph 2 mph 76% 0 in 0 W/m2
22:51 63 °F 55.2 °F 29.8 in East 0.9 mph 4 mph 76% 0 in 0 W/m2
22:56 63.1 °F 55.4 °F 29.8 in NE 2 mph 4 mph 76% 0 in 0 W/m2
23:01 63.1 °F 55.8 °F 29.8 in North 0.9 mph 7 mph 77% 0 in 0 W/m2
23:06 63.3 °F 55.9 °F 29.8 in Calm   3 mph 77% 0 in 0 W/m2
23:11 63.3 °F 55.9 °F 29.8 in Calm   3 mph 77% 0 in 0 W/m2
23:16 63.3 °F 55.9 °F 29.8 in ENE 0.9 mph 2 mph 77% 0 in 0 W/m2
23:21 63.3 °F 56.3 °F 29.8 in NW 2 mph 3 mph 78% 0 in 0 W/m2
23:26 63.5 °F 56.5 °F 29.8 in NW 0.9 mph 3 mph 78% 0 in 0 W/m2
23:31 63.3 °F 56.3 °F 29.8 in WSW 2.9 mph 4 mph 78% 0 in 0 W/m2
23:36 63.3 °F 56.7 °F 29.8 in North 4 mph 4 mph 79% 0 in 0 W/m2
23:41 63.3 °F 56.7 °F 29.8 in NW 4 mph 8 mph 79% 0 in 0 W/m2
23:46 63.3 °F 56.7 °F 29.8 in Calm   7 mph 79% 0 in 0 W/m2
23:51 63.3 °F 56.7 °F 29.8 in NNW 2 mph 4 mph 79% 0 in 0 W/m2
23:56 63.3 °F 56.7 °F 29.8 in NW 2 mph 9 mph 79% 0 in 0 W/m2
Juneau County Weather
Compliments of Weather Underground - 4 mb